Time;durP1;ratioP1;P1;durP2;ratioP2;P2;SDS_P1;SDS_P2;PMS_P1;PMS_P2;Temp;Humidity;BMP_temperature;BMP_pressure;BME280_temperature;BME280_humidity;BME280_pressure;Samples;Min_cycle;Max_cycle;Signal;HPM_P1;HPM_P2
2023/05/04 00:01:40;;;;;;;10.77;5.57;;;6.90;99.90;;;;;;4973614;28;20043;-81
2023/05/04 00:04:06;;;;;;;10.57;5.20;;;6.90;99.90;;;;;;4957505;28;20058;-81
2023/05/04 00:06:31;;;;;;;9.80;5.17;;;6.90;99.90;;;;;;4973564;28;20047;-81
2023/05/04 00:08:57;;;;;;;11.37;5.07;;;6.90;99.90;;;;;;4973279;28;20774;-81
2023/05/04 00:11:23;;;;;;;10.57;5.50;;;6.80;99.90;;;;;;4974257;28;20082;-81
2023/05/04 00:13:49;;;;;;;12.47;5.27;;;6.90;99.90;;;;;;4974295;28;20057;-81
2023/05/04 00:16:14;;;;;;;13.13;6.70;;;6.80;99.90;;;;;;4974218;28;20050;-81
2023/05/04 00:18:40;;;;;;;13.73;6.00;;;6.80;99.90;;;;;;4957136;28;20050;-81
2023/05/04 00:21:06;;;;;;;12.03;5.67;;;6.80;99.90;;;;;;4974533;28;20122;-81
2023/05/04 00:23:32;;;;;;;11.40;5.40;;;6.80;99.90;;;;;;4977638;28;20089;-81
2023/05/04 00:25:58;;;;;;;12.23;5.90;;;6.70;99.90;;;;;;4977693;28;20078;-81
2023/05/04 00:28:24;;;;;;;13.27;6.95;;;6.80;99.90;;;;;;4977413;28;20050;-81
2023/05/04 00:30:52;;;;;;;13.63;5.90;;;6.70;99.90;;;;;;4977762;28;20050;-81
2023/05/04 00:33:18;;;;;;;11.52;5.85;;;6.60;99.90;;;;;;4976269;28;20283;-81
2023/05/04 00:35:44;;;;;;;17.73;6.50;;;6.70;99.90;;;;;;4975914;28;20201;-81
2023/05/04 00:38:12;;;;;;;11.02;5.82;;;6.60;99.90;;;;;;4975914;28;20103;-81
2023/05/04 00:40:39;;;;;;;8.60;5.70;;;6.60;99.90;;;;;;4976603;28;20061;-81
2023/05/04 00:43:05;;;;;;;10.10;5.45;;;6.60;99.90;;;;;;4976096;28;20118;-81
2023/05/04 00:45:31;;;;;;;9.33;5.23;;;6.60;99.90;;;;;;4977213;28;20077;-81
2023/05/04 00:47:57;;;;;;;12.43;5.95;;;6.60;99.90;;;;;;4977508;28;20407;-80
2023/05/04 00:50:25;;;;;;;13.10;6.13;;;6.60;99.90;;;;;;4977729;28;20138;-82
2023/05/04 00:52:54;;;;;;;13.13;5.60;;;6.50;99.90;;;;;;4976150;28;20055;-81
2023/05/04 00:55:20;;;;;;;10.57;5.40;;;6.50;99.90;;;;;;4976170;28;20391;-81
2023/05/04 00:57:47;;;;;;;10.37;5.40;;;6.50;99.90;;;;;;4975797;28;20038;-81
2023/05/04 01:00:13;;;;;;;10.98;5.93;;;6.50;99.90;;;;;;4976044;28;20082;-81
2023/05/04 01:02:40;;;;;;;12.07;5.43;;;6.50;99.90;;;;;;4976827;28;20047;-81
2023/05/04 01:05:06;;;;;;;13.32;5.72;;;6.50;99.90;;;;;;4975708;28;20301;-81
2023/05/04 01:08:01;;;;;;;10.15;5.82;;;6.50;99.90;;;;;;4975874;28;20042;-81
2023/05/04 01:10:36;;;;;;;9.73;5.47;;;6.50;99.90;;;;;;4976120;28;20047;-82
2023/05/04 01:13:11;;;;;;;11.45;5.95;;;6.50;99.90;;;;;;4976414;28;20383;-81
2023/05/04 01:15:38;;;;;;;8.50;5.05;;;6.40;99.90;;;;;;4959990;28;20050;-81
2023/05/04 01:18:05;;;;;;;16.27;6.50;;;6.40;99.90;;;;;;4975469;28;20398;-81
2023/05/04 01:20:31;;;;;;;10.10;5.00;;;6.40;99.90;;;;;;4975948;28;20058;-81
2023/05/04 01:22:58;;;;;;;10.57;5.13;;;6.40;99.90;;;;;;4976139;28;20046;-81
2023/05/04 01:25:33;;;;;;;12.32;5.00;;;6.40;99.90;;;;;;4976216;28;20051;-81
2023/05/04 01:28:06;;;;;;;10.68;4.93;;;6.40;99.90;;;;;;4975825;28;20055;-81
2023/05/04 01:30:38;;;;;;;12.32;5.38;;;6.40;99.90;;;;;;4976274;28;20073;-81
2023/05/04 01:33:05;;;;;;;10.20;5.38;;;6.40;99.90;;;;;;4977121;28;20074;-81
2023/05/04 01:35:31;;;;;;;14.32;6.32;;;6.40;99.90;;;;;;4976333;28;20058;-81
2023/05/04 01:37:58;;;;;;;11.95;5.53;;;6.40;99.90;;;;;;4976497;28;20058;-81
2023/05/04 01:40:23;;;;;;;11.48;5.80;;;6.40;99.90;;;;;;4975270;28;20115;-81
2023/05/04 01:42:49;;;;;;;13.13;6.00;;;6.40;99.90;;;;;;4974720;28;20152;-81
2023/05/04 01:45:15;;;;;;;14.87;6.03;;;6.40;99.90;;;;;;4975190;28;20059;-81
2023/05/04 01:47:41;;;;;;;16.20;7.00;;;6.30;99.90;;;;;;4975105;28;20049;-81
2023/05/04 01:50:07;;;;;;;11.77;6.77;;;6.30;99.90;;;;;;4975192;28;20054;-81
2023/05/04 01:52:32;;;;;;;12.10;6.45;;;6.30;99.90;;;;;;4975795;28;20050;-82
2023/05/04 01:54:58;;;;;;;12.77;6.83;;;6.30;99.90;;;;;;4976155;28;20047;-81
2023/05/04 01:57:24;;;;;;;17.43;6.57;;;6.30;99.90;;;;;;4975709;28;20471;-83
2023/05/04 01:59:49;;;;;;;12.50;6.60;;;6.30;99.90;;;;;;4974643;28;20130;-81
2023/05/04 02:02:15;;;;;;;10.73;6.47;;;6.30;99.90;;;;;;4975470;28;20356;-81
2023/05/04 02:04:41;;;;;;;14.73;7.00;;;6.20;99.90;;;;;;4976309;28;20446;-81
2023/05/04 02:07:07;;;;;;;13.87;7.03;;;6.20;99.90;;;;;;4974683;28;20129;-81
2023/05/04 02:09:34;;;;;;;12.37;6.43;;;6.20;99.90;;;;;;4976522;28;20050;-81
2023/05/04 02:11:59;;;;;;;12.63;6.07;;;6.20;99.90;;;;;;4975634;28;20049;-80
2023/05/04 02:14:25;;;;;;;12.13;5.93;;;6.20;99.90;;;;;;4958629;28;20046;-84
2023/05/04 02:16:51;;;;;;;10.70;6.27;;;6.20;99.90;;;;;;4974468;28;20116;-81
2023/05/04 02:19:17;;;;;;;14.00;6.03;;;6.20;99.90;;;;;;4975333;28;20043;-81
2023/05/04 02:21:43;;;;;;;12.60;6.13;;;6.20;99.90;;;;;;4974439;28;20049;-81
2023/05/04 02:24:08;;;;;;;13.88;6.65;;;6.20;99.90;;;;;;4976247;28;20074;-81
2023/05/04 02:26:35;;;;;;;14.77;7.00;;;6.30;99.90;;;;;;4975465;28;20483;-81
2023/05/04 02:29:04;;;;;;;12.98;6.35;;;6.20;99.90;;;;;;4976036;28;20082;-81
2023/05/04 02:31:31;;;;;;;11.60;6.95;;;6.20;99.90;;;;;;4975521;28;20105;-82
2023/05/04 02:33:57;;;;;;;12.77;6.63;;;6.20;99.90;;;;;;4975061;28;20062;-81
2023/05/04 02:36:22;;;;;;;9.80;6.20;;;6.20;99.90;;;;;;4974778;28;20414;-80
2023/05/04 02:38:49;;;;;;;11.07;6.00;;;6.20;99.90;;;;;;4973866;28;20043;-81
2023/05/04 02:41:15;;;;;;;13.18;6.63;;;6.20;99.90;;;;;;4975591;28;20137;-81
2023/05/04 02:43:41;;;;;;;10.37;6.27;;;6.20;99.90;;;;;;4974594;28;20138;-81
2023/05/04 02:46:06;;;;;;;13.07;6.40;;;6.20;99.90;;;;;;4974924;28;20053;-81
2023/05/04 02:48:32;;;;;;;11.47;7.00;;;6.20;99.90;;;;;;4974260;28;20043;-82
2023/05/04 02:50:58;;;;;;;10.30;6.20;;;6.20;99.90;;;;;;4974770;28;20053;-81
2023/05/04 02:53:24;;;;;;;11.40;6.33;;;6.20;99.90;;;;;;4974957;28;20056;-81
2023/05/04 02:55:49;;;;;;;10.87;5.57;;;6.20;99.90;;;;;;4973555;28;20290;-82
2023/05/04 02:58:15;;;;;;;10.07;5.63;;;6.20;99.90;;;;;;4974731;28;20046;-81
2023/05/04 03:00:41;;;;;;;12.93;6.17;;;6.20;99.90;;;;;;4974559;28;20121;-82
2023/05/04 03:03:07;;;;;;;13.07;6.73;;;6.20;99.90;;;;;;4974783;28;20050;-81
2023/05/04 03:05:32;;;;;;;12.80;7.13;;;6.20;99.90;;;;;;4973662;28;20388;-82
2023/05/04 03:07:58;;;;;;;12.40;6.13;;;6.20;99.90;;;;;;4975049;28;20054;-81
2023/05/04 03:10:24;;;;;;;12.03;7.17;;;6.20;99.90;;;;;;4958462;28;20141;-81
2023/05/04 03:12:49;;;;;;;14.60;7.40;;;6.20;99.90;;;;;;4974793;28;20043;-81
2023/05/04 03:15:15;;;;;;;14.23;6.93;;;6.20;99.90;;;;;;4973544;28;20046;-81
2023/05/04 03:17:42;;;;;;;11.10;7.40;;;6.20;99.90;;;;;;4974681;28;20051;-81
2023/05/04 03:20:08;;;;;;;21.00;7.50;;;6.20;99.90;;;;;;4973699;28;20078;-80
2023/05/04 03:22:34;;;;;;;14.65;8.02;;;6.20;99.90;;;;;;4974268;28;20518;-85
2023/05/04 03:25:00;;;;;;;14.52;7.25;;;6.30;99.90;;;;;;4974465;28;20452;-81
2023/05/04 03:27:26;;;;;;;14.50;8.10;;;6.30;99.90;;;;;;4974612;28;20053;-81
2023/05/04 03:29:52;;;;;;;13.13;7.73;;;6.20;99.90;;;;;;4974631;28;20141;-81
2023/05/04 03:32:17;;;;;;;14.87;6.97;;;6.20;99.90;;;;;;4973613;28;20043;-81
2023/05/04 03:34:44;;;;;;;12.13;7.53;;;6.30;99.90;;;;;;4974358;28;20051;-81
2023/05/04 03:37:10;;;;;;;13.60;6.85;;;6.30;99.90;;;;;;4974418;28;20054;-81
2023/05/04 03:39:36;;;;;;;13.80;7.15;;;6.30;99.90;;;;;;4974324;28;20049;-87
2023/05/04 03:42:03;;;;;;;12.73;7.53;;;6.30;99.90;;;;;;4957327;28;20129;-81
2023/05/04 03:44:29;;;;;;;13.75;7.07;;;6.30;99.90;;;;;;4973509;28;20051;-81
2023/05/04 03:46:55;;;;;;;13.15;7.50;;;6.30;99.90;;;;;;4973529;28;20097;-81
2023/05/04 03:49:21;;;;;;;12.67;7.90;;;6.30;99.90;;;;;;4975169;28;20047;-81
2023/05/04 03:51:46;;;;;;;13.30;8.13;;;6.30;99.90;;;;;;4974422;28;20507;-81
2023/05/04 03:54:12;;;;;;;18.53;8.07;;;6.30;99.90;;;;;;4973413;28;20061;-81
2023/05/04 03:56:38;;;;;;;13.63;8.07;;;6.40;99.90;;;;;;4975422;28;20055;-86
2023/05/04 03:59:03;;;;;;;13.73;7.23;;;6.40;99.90;;;;;;4977658;28;20521;-81
2023/05/04 04:01:29;;;;;;;12.40;6.60;;;6.40;99.90;;;;;;4977018;28;20101;-81
2023/05/04 04:03:55;;;;;;;15.33;7.30;;;6.40;99.90;;;;;;4978024;28;20061;-81
2023/05/04 04:06:22;;;;;;;11.90;6.67;;;6.40;99.90;;;;;;4978026;28;20058;-82
2023/05/04 04:08:47;;;;;;;12.95;7.25;;;6.40;99.90;;;;;;4978414;28;20046;-81
2023/05/04 04:11:13;;;;;;;13.77;7.23;;;6.40;99.90;;;;;;4976923;28;20058;-81
2023/05/04 04:13:39;;;;;;;12.32;7.50;;;6.40;99.90;;;;;;4978385;28;20109;-81
2023/05/04 04:16:05;;;;;;;14.83;6.83;;;6.40;99.90;;;;;;4978065;28;20113;-81
2023/05/04 04:18:31;;;;;;;16.45;7.80;;;6.40;99.90;;;;;;4976834;28;20447;-81
2023/05/04 04:20:57;;;;;;;11.30;6.87;;;6.50;99.90;;;;;;4976738;28;20047;-81
2023/05/04 04:23:23;;;;;;;12.20;7.13;;;6.50;99.90;;;;;;4977615;28;20471;-81
2023/05/04 04:25:50;;;;;;;12.27;7.05;;;6.50;99.90;;;;;;4977384;28;20537;-81
2023/05/04 04:28:16;;;;;;;12.88;7.40;;;6.40;99.90;;;;;;4977624;28;20039;-80
2023/05/04 04:30:42;;;;;;;13.32;6.63;;;6.40;99.90;;;;;;4977330;28;20153;-82
2023/05/04 04:33:08;;;;;;;14.27;8.17;;;6.40;99.90;;;;;;4976586;28;20526;-81
2023/05/04 04:35:34;;;;;;;12.68;7.28;;;6.40;99.90;;;;;;4977110;28;20117;-81
2023/05/04 04:38:00;;;;;;;10.60;6.53;;;6.40;99.90;;;;;;4976194;28;20483;-81
2023/05/04 04:40:26;;;;;;;15.38;7.97;;;6.50;99.90;;;;;;4977277;28;20049;-81
2023/05/04 04:42:52;;;;;;;12.33;6.83;;;6.50;99.90;;;;;;4976036;28;20475;-81
2023/05/04 04:45:19;;;;;;;10.87;6.63;;;6.50;99.90;;;;;;4977328;28;20051;-80
2023/05/04 04:47:45;;;;;;;17.30;7.28;;;6.50;99.90;;;;;;4976505;28;20062;-86
2023/05/04 04:50:11;;;;;;;13.13;6.23;;;6.50;99.90;;;;;;4977800;28;20054;-82
2023/05/04 04:52:39;;;;;;;12.02;6.65;;;6.50;99.90;;;;;;4976844;28;20057;-82
2023/05/04 04:55:06;;;;;;;13.73;7.00;;;6.50;99.90;;;;;;4960196;28;20050;-82
2023/05/04 04:57:32;;;;;;;12.02;8.10;;;6.50;99.90;;;;;;4976062;28;20455;-82
2023/05/04 04:59:59;;;;;;;12.82;6.75;;;6.50;99.90;;;;;;4976975;28;20061;-81
2023/05/04 05:02:26;;;;;;;13.27;7.40;;;6.60;99.90;;;;;;4976901;28;20047;-81
2023/05/04 05:04:53;;;;;;;12.05;7.20;;;6.60;99.90;;;;;;4975742;28;20074;-80
2023/05/04 05:07:19;;;;;;;12.90;7.32;;;6.60;99.90;;;;;;4975515;28;20479;-82
2023/05/04 05:09:45;;;;;;;12.35;7.82;;;6.60;99.90;;;;;;4975511;28;20129;-81
2023/05/04 05:12:10;;;;;;;15.23;8.20;;;6.70;99.90;;;;;;4976811;28;20133;-82
2023/05/04 05:14:36;;;;;;;11.07;6.63;;;6.70;99.90;;;;;;4977055;28;20077;-81
2023/05/04 05:17:05;;;;;;;14.30;7.23;;;6.70;99.90;;;;;;4976693;28;20509;-82
2023/05/04 05:19:35;;;;;;;11.88;6.93;;;6.80;99.90;;;;;;4976640;28;20051;-82
2023/05/04 05:22:02;;;;;;;17.65;7.72;;;6.90;99.90;;;;;;4975807;28;20047;-82
2023/05/04 05:24:28;;;;;;;18.55;7.50;;;6.90;99.90;;;;;;4976631;28;20113;-82
2023/05/04 05:26:53;;;;;;;12.77;6.83;;;7.00;99.90;;;;;;4977243;28;20460;-82
2023/05/04 05:29:20;;;;;;;11.00;6.50;;;7.10;99.90;;;;;;4975554;28;20360;-82
2023/05/04 05:31:46;;;;;;;14.45;6.90;;;7.10;99.90;;;;;;4976491;28;20087;-84
2023/05/04 05:34:11;;;;;;;14.73;7.37;;;7.20;99.90;;;;;;4959345;28;20116;-82
2023/05/04 05:36:37;;;;;;;13.10;6.63;;;7.30;99.90;;;;;;4974770;28;20055;-82
2023/05/04 05:39:03;;;;;;;13.13;7.07;;;7.40;99.90;;;;;;4975322;28;20050;-82
2023/05/04 05:41:29;;;;;;;14.03;7.03;;;7.50;99.90;;;;;;4975040;28;20387;-82
2023/05/04 05:43:55;;;;;;;11.23;6.70;;;7.70;99.90;;;;;;4975039;28;20054;-82
2023/05/04 05:46:21;;;;;;;13.70;7.00;;;7.90;99.90;;;;;;4975069;28;20051;-82
2023/05/04 05:48:47;;;;;;;10.07;6.13;;;8.10;99.90;;;;;;4976213;28;20406;-81
2023/05/04 05:51:13;;;;;;;11.23;6.33;;;8.40;99.90;;;;;;4975890;28;20055;-79
2023/05/04 05:53:39;;;;;;;13.07;6.43;;;8.70;99.90;;;;;;4975054;28;20090;-79
2023/05/04 05:56:05;;;;;;;12.90;6.13;;;9.00;99.90;;;;;;4975990;28;20043;-78
2023/05/04 05:58:31;;;;;;;12.00;5.93;;;9.20;99.90;;;;;;4959677;28;20128;-79
2023/05/04 06:00:56;;;;;;;12.30;6.10;;;9.40;99.90;;;;;;4975948;28;20057;-79
2023/05/04 06:03:22;;;;;;;10.07;6.40;;;9.30;99.90;;;;;;4975999;28;20046;-79
2023/05/04 06:05:48;;;;;;;11.80;6.23;;;9.40;99.90;;;;;;4976050;28;20282;-80
2023/05/04 06:08:14;;;;;;;10.83;6.07;;;9.50;99.90;;;;;;4974606;28;20142;-82
2023/05/04 06:10:40;;;;;;;11.23;6.23;;;9.60;99.90;;;;;;4975803;28;20050;-81
2023/05/04 06:13:05;;;;;;;11.90;6.10;;;9.90;99.90;;;;;;4974497;28;20459;-82
2023/05/04 06:15:31;;;;;;;12.97;5.63;;;10.00;99.90;;;;;;4975199;28;20050;-81
2023/05/04 06:17:57;;;;;;;11.30;5.73;;;10.20;99.90;;;;;;4975609;28;20070;-82
2023/05/04 06:20:23;;;;;;;10.83;6.17;;;10.50;99.90;;;;;;4974891;28;20059;-81
2023/05/04 06:22:48;;;;;;;12.60;6.20;;;10.80;99.90;;;;;;4974281;28;20049;-81
2023/05/04 06:25:14;;;;;;;10.80;5.80;;;11.00;99.90;;;;;;4974720;28;20046;-80
2023/05/04 06:27:40;;;;;;;11.50;5.87;;;11.30;99.90;;;;;;4974190;28;20395;-80
2023/05/04 06:30:06;;;;;;;12.40;5.83;;;11.50;99.90;;;;;;4974979;28;20141;-80
2023/05/04 06:32:32;;;;;;;13.83;5.90;;;11.70;99.90;;;;;;4975833;28;20051;-80
2023/05/04 06:34:58;;;;;;;10.87;5.93;;;11.80;99.90;;;;;;4975177;28;20309;-84
2023/05/04 06:37:25;;;;;;;11.97;5.80;;;12.00;99.90;;;;;;4975879;28;20142;-80
2023/05/04 06:39:50;;;;;;;14.00;6.07;;;12.00;99.90;;;;;;4975293;28;20130;-80
2023/05/04 06:42:16;;;;;;;11.57;5.80;;;12.00;99.90;;;;;;4974053;28;20877;-80
2023/05/04 06:44:42;;;;;;;11.93;5.57;;;12.30;99.90;;;;;;4975450;28;20141;-80
2023/05/04 06:47:08;;;;;;;12.30;5.70;;;12.40;99.90;;;;;;4974004;28;20510;-81
2023/05/04 06:49:34;;;;;;;10.90;5.90;;;12.60;99.90;;;;;;4975088;28;20128;-82
2023/05/04 06:52:00;;;;;;;15.97;5.53;;;12.50;99.90;;;;;;4973816;28;20154;-87
2023/05/04 06:54:26;;;;;;;13.33;6.13;;;12.60;99.90;;;;;;4975052;28;20057;-81
2023/05/04 06:56:52;;;;;;;11.47;5.67;;;12.70;99.90;;;;;;4974975;28;20285;-81
2023/05/04 06:59:19;;;;;;;10.67;5.57;;;12.90;99.90;;;;;;4973946;28;20348;-81
2023/05/04 07:01:46;;;;;;;10.70;5.77;;;13.10;99.90;;;;;;4974223;28;20049;-81
2023/05/04 07:04:15;;;;;;;10.50;5.53;;;13.30;99.90;;;;;;4974613;28;20306;-81
2023/05/04 07:06:42;;;;;;;11.67;5.47;;;13.20;99.90;;;;;;4974547;28;20321;-84
2023/05/04 07:09:07;;;;;;;10.50;5.10;;;13.30;99.90;;;;;;4975523;28;20615;-84
2023/05/04 07:11:33;;;;;;;10.63;5.30;;;13.50;99.90;;;;;;4974943;28;20275;-83
2023/05/04 07:13:59;;;;;;;13.73;5.30;;;13.80;99.90;;;;;;4975827;28;20050;-84
2023/05/04 07:16:25;;;;;;;9.30;4.63;;;14.10;99.90;;;;;;4975242;28;20442;-83
2023/05/04 07:18:51;;;;;;;11.13;5.97;;;14.30;99.90;;;;;;4974763;28;20082;-84
2023/05/04 07:21:17;;;;;;;11.43;5.43;;;14.50;99.90;;;;;;4974852;28;20322;-84
2023/05/04 07:23:43;;;;;;;11.57;6.03;;;14.80;99.90;;;;;;4974765;28;20081;-84
2023/05/04 07:26:08;;;;;;;10.80;6.07;;;15.10;99.60;;;;;;4974661;28;20082;-84
2023/05/04 07:28:34;;;;;;;9.20;5.80;;;15.40;97.80;;;;;;4973686;28;20825;-84
2023/05/04 07:31:00;;;;;;;10.53;5.37;;;15.60;95.50;;;;;;4976243;28;20085;-85
2023/05/04 07:33:27;;;;;;;10.33;5.40;;;16.10;95.90;;;;;;4979437;28;20435;-84
2023/05/04 07:35:57;;;;;;;11.60;5.40;;;16.40;95.40;;;;;;4978725;28;20067;-82
2023/05/04 07:38:24;;;;;;;11.30;6.07;;;;;;;;;;4978561;28;20795;-84
2023/05/04 07:40:50;;;;;;;9.00;5.00;;;16.80;90.10;;;;;;4977528;28;20294;-83
2023/05/04 07:43:15;;;;;;;12.53;5.33;;;16.30;82.70;;;;;;4977275;28;20043;-83
2023/05/04 07:45:41;;;;;;;11.70;5.70;;;16.30;90.30;;;;;;4977273;28;20395;-83
2023/05/04 07:48:07;;;;;;;12.03;5.63;;;15.90;89.40;;;;;;4979201;28;20105;-83
2023/05/04 07:50:33;;;;;;;11.33;5.70;;;15.80;89.60;;;;;;4977733;28;20053;-84
2023/05/04 07:52:58;;;;;;;10.37;5.80;;;15.90;91.90;;;;;;4978305;28;20443;-84
2023/05/04 07:55:25;;;;;;;8.90;5.03;;;15.90;91.60;;;;;;4945222;28;20454;-81
2023/05/04 07:57:51;;;;;;;9.33;5.30;;;15.70;90.50;;;;;;4978224;28;20073;-81
2023/05/04 08:00:18;;;;;;;10.97;5.60;;;15.80;91.20;;;;;;4978420;28;20735;-81
2023/05/04 08:02:44;;;;;;;11.67;4.90;;;15.70;90.60;;;;;;4978104;28;20058;-82
2023/05/04 08:05:10;;;;;;;9.23;5.50;;;15.60;91.00;;;;;;4977991;28;20399;-80
2023/05/04 08:07:36;;;;;;;12.73;6.37;;;15.90;91.50;;;;;;4977750;28;20565;-81
2023/05/04 08:10:02;;;;;;;11.97;5.27;;;16.00;90.20;;;;;;4976661;28;20133;-80
2023/05/04 08:12:28;;;;;;;12.50;5.27;;;15.90;90.80;;;;;;4978164;28;20538;-80
2023/05/04 08:14:54;;;;;;;12.00;5.00;;;15.80;90.20;;;;;;4978124;28;20054;-79
2023/05/04 08:17:19;;;;;;;9.10;5.17;;;15.50;85.10;;;;;;4977829;28;20542;-79
2023/05/04 08:19:45;;;;;;;10.30;5.40;;;15.30;90.40;;;;;;4977865;28;20047;-81
2023/05/04 08:22:11;;;;;;;9.80;5.17;;;15.00;91.00;;;;;;4976465;28;20500;-84
2023/05/04 08:24:36;;;;;;;11.37;4.97;;;14.80;91.70;;;;;;4977713;28;20439;-76
2023/05/04 08:27:02;;;;;;;9.43;4.97;;;14.60;92.80;;;;;;4978167;28;20049;-74
2023/05/04 08:29:30;;;;;;;9.53;4.67;;;14.50;93.10;;;;;;4977875;28;20483;-78
2023/05/04 08:31:56;;;;;;;9.03;5.17;;;14.30;94.50;;;;;;4977555;28;20055;-78
2023/05/04 08:34:22;;;;;;;9.40;5.00;;;14.10;96.00;;;;;;4977415;28;20332;-78
2023/05/04 08:36:48;;;;;;;9.03;4.63;;;14.30;97.60;;;;;;4975790;28;20298;-78
2023/05/04 08:39:14;;;;;;;9.80;5.57;;;14.00;96.10;;;;;;4976408;28;20074;-79
2023/05/04 08:41:40;;;;;;;10.00;4.87;;;14.00;96.70;;;;;;4975687;28;20050;-79
2023/05/04 08:44:10;;;;;;;9.63;4.70;;;14.00;97.10;;;;;;4977085;28;20050;-78
2023/05/04 08:46:39;;;;;;;11.07;5.17;;;14.00;96.10;;;;;;4977318;28;20801;-79
2023/05/04 08:49:11;;;;;;;10.17;4.80;;;14.10;97.20;;;;;;4975914;28;20333;-78
2023/05/04 08:51:38;;;;;;;9.97;4.90;;;14.20;96.80;;;;;;4977119;28;20275;-79
2023/05/04 08:54:09;;;;;;;9.50;4.97;;;14.30;97.30;;;;;;4975941;28;20289;-78
2023/05/04 08:56:37;;;;;;;12.30;5.57;;;14.40;97.00;;;;;;4977430;28;20349;-80
2023/05/04 08:59:02;;;;;;;9.83;4.40;;;14.40;95.60;;;;;;4977011;28;20754;-82
2023/05/04 09:01:30;;;;;;;10.30;5.07;;;14.30;97.00;;;;;;4976882;28;20282;-77
2023/05/04 09:03:59;;;;;;;9.93;5.50;;;14.40;97.20;;;;;;4976947;28;20549;-82
2023/05/04 09:06:25;;;;;;;11.83;5.40;;;14.40;97.80;;;;;;4977173;28;20274;-85
2023/05/04 09:08:51;;;;;;;10.83;5.50;;;14.50;98.20;;;;;;4976895;28;20349;-84
2023/05/04 09:11:17;;;;;;;9.87;4.87;;;14.40;96.90;;;;;;4976870;28;20291;-83
2023/05/04 09:13:42;;;;;;;9.93;5.50;;;14.40;98.40;;;;;;4977368;28;20043;-83
2023/05/04 09:16:08;;;;;;;9.67;4.27;;;14.50;98.50;;;;;;4976885;28;20503;-83
2023/05/04 09:18:38;;;;;;;11.50;5.40;;;14.60;99.30;;;;;;4977409;28;20055;-80
2023/05/04 09:21:04;;;;;;;10.00;5.27;;;14.60;97.80;;;;;;4976583;28;20055;-84
2023/05/04 09:23:30;;;;;;;8.90;4.83;;;14.60;98.40;;;;;;4976435;28;20337;-80
2023/05/04 09:25:56;;;;;;;10.97;4.57;;;14.50;97.00;;;;;;4976572;28;20086;-81
2023/05/04 09:28:34;;;;;;;10.03;5.17;;;14.60;98.60;;;;;;4976501;28;20051;-81
2023/05/04 09:31:01;;;;;;;10.23;5.23;;;14.50;96.60;;;;;;4977253;28;20050;-82
2023/05/04 09:33:28;;;;;;;9.57;5.17;;;14.50;98.00;;;;;;4975385;28;20365;-82
2023/05/04 09:35:54;;;;;;;8.20;4.87;;;14.60;99.00;;;;;;4976236;28;20360;-82
2023/05/04 09:38:26;;;;;;;10.10;5.37;;;14.60;98.10;;;;;;4975364;28;20291;-83
2023/05/04 09:40:52;;;;;;;7.37;4.50;;;14.60;98.10;;;;;;4976844;28;20666;-80
2023/05/04 09:43:18;;;;;;;12.20;5.40;;;14.70;97.60;;;;;;4976073;28;20302;-81
2023/05/04 09:45:46;;;;;;;10.17;5.00;;;14.80;96.80;;;;;;4976879;28;20337;-86
2023/05/04 09:48:18;;;;;;;10.33;5.00;;;15.00;98.50;;;;;;4976196;28;20054;-85
2023/05/04 09:50:55;;;;;;;9.10;5.00;;;15.10;96.90;;;;;;4976072;28;20333;-84
2023/05/04 09:53:26;;;;;;;10.80;4.60;;;15.20;96.70;;;;;;4975845;28;20353;-80
2023/05/04 09:56:04;;;;;;;8.37;4.57;;;15.30;96.60;;;;;;4976137;28;20285;-80
2023/05/04 09:58:30;;;;;;;10.00;5.07;;;15.30;94.90;;;;;;4976785;28;20627;-80
2023/05/04 10:00:59;;;;;;;10.60;4.67;;;15.20;96.50;;;;;;4976704;28;20317;-78
2023/05/04 10:03:26;;;;;;;10.33;4.70;;;15.20;96.60;;;;;;4975708;28;20789;-82
2023/05/04 10:05:53;;;;;;;9.37;4.47;;;15.30;96.30;;;;;;4974923;28;20782;-83
2023/05/04 10:08:19;;;;;;;8.93;5.00;;;15.30;95.60;;;;;;4975819;28;20286;-82
2023/05/04 10:10:45;;;;;;;9.40;4.60;;;15.40;96.50;;;;;;4975528;28;20294;-83
2023/05/04 10:13:11;;;;;;;10.70;4.80;;;15.40;95.50;;;;;;4975706;28;20283;-72
2023/05/04 10:15:44;;;;;;;8.33;4.37;;;15.50;95.50;;;;;;4975584;28;20046;-78
2023/05/04 10:18:15;;;;;;;8.40;4.13;;;;;;;;;;4976267;28;20097;-80
2023/05/04 10:20:50;;;;;;;10.00;4.50;;;15.60;92.40;;;;;;4975876;28;20286;-82
2023/05/04 10:23:53;;;;;;;10.00;5.00;;;15.60;94.10;;;;;;4975412;28;20047;-85
2023/05/04 10:26:24;;;;;;;8.10;4.40;;;15.70;93.70;;;;;;4975586;28;20050;-82
2023/05/04 10:28:58;;;;;;;9.67;4.50;;;15.80;93.50;;;;;;4974399;28;20739;-84
2023/05/04 10:31:24;;;;;;;7.87;4.07;;;15.80;91.70;;;;;;4958711;28;20681;-85
2023/05/04 10:33:50;;;;;;;7.33;4.40;;;15.80;91.40;;;;;;4976116;28;20286;-84
2023/05/04 10:36:16;;;;;;;9.90;4.50;;;15.70;90.10;;;;;;4975812;28;20066;-83
2023/05/04 10:38:42;;;;;;;8.37;4.67;;;15.70;87.00;;;;;;4975293;28;20627;-84
2023/05/04 10:41:17;;;;;;;6.87;4.57;;;15.80;88.20;;;;;;4975334;28;20160;-84
2023/05/04 10:43:49;;;;;;;9.10;4.60;;;15.80;90.20;;;;;;4974555;28;20050;-82
2023/05/04 10:46:24;;;;;;;11.00;4.73;;;15.80;90.70;;;;;;4975741;28;20282;-82
2023/05/04 10:48:50;;;;;;;11.25;4.85;;;15.90;88.10;;;;;;4974717;28;20061;-83
2023/05/04 10:51:23;;;;;;;7.77;4.53;;;15.90;90.50;;;;;;4975330;28;20064;-83
2023/05/04 10:53:50;;;;;;;9.13;4.27;;;15.90;82.70;;;;;;4974950;28;20483;-81
2023/05/04 10:56:23;;;;;;;7.53;4.37;;;16.00;88.80;;;;;;4975558;28;20282;-81
2023/05/04 10:58:49;;;;;;;8.40;4.40;;;16.00;86.70;;;;;;4974926;28;20282;-81
2023/05/04 11:01:15;;;;;;;9.90;4.90;;;16.00;88.90;;;;;;4974914;28;20050;-81
2023/05/04 11:03:41;;;;;;;7.70;4.40;;;16.00;86.20;;;;;;4974791;28;20322;-84
2023/05/04 11:06:18;;;;;;;9.67;4.70;;;16.10;88.00;;;;;;4974463;28;20278;-79
2023/05/04 11:08:46;;;;;;;10.10;5.27;;;16.20;87.00;;;;;;4974636;28;20054;-83
2023/05/04 11:11:12;;;;;;;10.00;4.70;;;16.30;87.80;;;;;;4974896;28;20049;-79
2023/05/04 11:13:45;;;;;;;8.57;4.73;;;16.40;88.40;;;;;;4974858;28;20047;-81
2023/05/04 11:16:12;;;;;;;9.53;4.70;;;16.40;88.40;;;;;;4975065;28;20447;-82
2023/05/04 11:18:39;;;;;;;10.50;4.80;;;16.40;83.30;;;;;;4974885;28;20051;-82
2023/05/04 11:21:07;;;;;;;9.00;4.70;;;16.40;84.30;;;;;;4974869;28;20054;-82
2023/05/04 11:23:33;;;;;;;9.87;4.10;;;16.50;82.60;;;;;;4973612;28;20411;-84
2023/05/04 11:26:11;;;;;;;9.10;4.77;;;16.50;84.60;;;;;;4974523;28;20286;-81
2023/05/04 11:28:37;;;;;;;9.40;4.50;;;16.50;80.40;;;;;;4975368;28;20485;-83
2023/05/04 11:31:16;;;;;;;9.93;4.53;;;16.50;79.70;;;;;;4974687;28;20177;-83
2023/05/04 11:33:53;;;;;;;9.07;4.07;;;16.60;78.80;;;;;;4975025;28;20069;-82
2023/05/04 11:36:20;;;;;;;10.07;4.30;;;16.70;77.30;;;;;;4974536;28;20059;-80
2023/05/04 11:38:46;;;;;;;12.30;4.70;;;16.80;78.90;;;;;;4974315;28;20514;-83
2023/05/04 11:41:12;;;;;;;7.80;3.77;;;16.80;80.00;;;;;;4975217;28;20050;-83
2023/05/04 11:43:43;;;;;;;8.23;3.80;;;16.90;80.20;;;;;;4957322;28;20047;-85
2023/05/04 11:46:10;;;;;;;9.10;4.23;;;16.90;78.40;;;;;;4974618;28;20043;-82
2023/05/04 11:48:36;;;;;;;8.87;4.03;;;17.10;79.30;;;;;;4974594;28;20055;-84
2023/05/04 11:51:03;;;;;;;8.93;3.90;;;17.10;78.30;;;;;;4974497;28;20081;-83
2023/05/04 11:53:36;;;;;;;9.03;3.70;;;17.10;76.00;;;;;;4974598;28;20047;-83
2023/05/04 11:56:02;;;;;;;9.53;4.10;;;17.20;74.90;;;;;;4974749;28;20463;-83
2023/05/04 11:58:27;;;;;;;9.33;3.73;;;17.30;73.70;;;;;;4974497;28;20134;-81
2023/05/04 12:00:57;;;;;;;7.60;3.50;;;17.30;71.60;;;;;;4974748;28;20086;-81
2023/05/04 12:03:28;;;;;;;11.07;3.80;;;17.30;69.80;;;;;;4974420;28;20380;-82
2023/05/04 12:05:55;;;;;;;9.47;4.00;;;17.30;67.70;;;;;;4974957;28;20054;-83
2023/05/04 12:08:23;;;;;;;10.93;4.07;;;17.40;68.20;;;;;;4974796;28;20057;-83
2023/05/04 12:10:48;;;;;;;7.47;4.30;;;17.40;67.30;;;;;;4973408;28;20123;-82
2023/05/04 12:13:16;;;;;;;9.37;3.90;;;17.40;65.30;;;;;;4974296;28;20141;-84
2023/05/04 12:15:42;;;;;;;7.10;4.10;;;17.40;65.30;;;;;;4973584;28;20121;-85
2023/05/04 12:18:20;;;;;;;7.93;4.10;;;17.40;64.00;;;;;;4976240;28;20137;-83
2023/05/04 12:20:47;;;;;;;6.43;3.83;;;17.40;63.10;;;;;;4978139;28;20082;-83
2023/05/04 12:23:12;;;;;;;8.97;4.20;;;17.40;65.30;;;;;;4976502;28;20098;-84
2023/05/04 12:25:38;;;;;;;10.37;4.50;;;17.40;63.00;;;;;;4977723;28;20042;-84
2023/05/04 12:28:04;;;;;;;8.80;3.90;;;17.40;63.50;;;;;;4977640;28;20138;-83
2023/05/04 12:30:30;;;;;;;7.70;3.93;;;17.40;63.70;;;;;;4976673;28;20051;-83
2023/05/04 12:32:56;;;;;;;8.57;4.50;;;17.60;63.40;;;;;;4976360;28;20055;-83
2023/05/04 12:35:22;;;;;;;8.30;4.20;;;17.60;62.70;;;;;;4977309;28;20055;-83
2023/05/04 12:37:47;;;;;;;10.00;4.63;;;17.60;62.20;;;;;;4976490;28;20050;-83
2023/05/04 12:40:13;;;;;;;8.73;4.23;;;17.70;61.40;;;;;;4977552;28;20070;-83
2023/05/04 12:42:41;;;;;;;9.87;4.50;;;17.60;62.10;;;;;;4977383;28;20480;-81
2023/05/04 12:45:07;;;;;;;10.73;4.90;;;17.60;62.40;;;;;;4977378;28;20086;-81